Time;durP1;ratioP1;P1;durP2;ratioP2;P2;SDS_P1;SDS_P2;PMS_P1;PMS_P2;Temp;Humidity;BMP_temperature;BMP_pressure;BME280_temperature;BME280_humidity;BME280_pressure;Samples;Min_cycle;Max_cycle;Signal;HPM_P1;HPM_P2
2023/09/03 00:02:05;;;;;;;0.30;0.20;;;19.80;64.40;;;;;;5053207;28;20407;-68
2023/09/03 00:04:31;;;;;;;0.10;0.10;;;19.70;64.70;;;;;;5036126;28;20037;-68
2023/09/03 00:06:57;;;;;;;0.82;0.52;;;19.80;65.00;;;;;;5052321;28;20075;-68
2023/09/03 00:09:23;;;;;;;0.35;0.20;;;19.70;64.80;;;;;;5052776;28;20110;-68
2023/09/03 00:11:49;;;;;;;1.65;0.40;;;19.70;64.80;;;;;;5053056;28;20045;-68
2023/09/03 00:14:15;;;;;;;0.15;0.15;;;19.70;64.80;;;;;;5053971;28;20033;-69
2023/09/03 00:16:41;;;;;;;0.40;0.40;;;19.70;65.00;;;;;;5052192;28;20532;-69
2023/09/03 00:19:07;;;;;;;;;;;19.70;65.10;;;;;;5054253;28;20083;-68
2023/09/03 00:21:33;;;;;;;0.22;0.20;;;19.60;64.90;;;;;;5052716;28;19929;-68
2023/09/03 00:23:59;;;;;;;;;;;19.60;64.50;;;;;;5054451;28;20029;-69
2023/09/03 00:26:27;;;;;;;0.30;0.20;;;19.50;64.80;;;;;;5052996;28;20384;-69
2023/09/03 00:28:53;;;;;;;0.38;0.20;;;19.50;64.90;;;;;;5053203;28;20056;-69
2023/09/03 00:31:23;;;;;;;;;;;19.40;65.10;;;;;;5051903;28;20102;-69
2023/09/03 00:33:49;;;;;;;0.10;0.10;;;19.40;65.10;;;;;;5036259;28;20403;-68
2023/09/03 00:36:15;;;;;;;;;;;19.40;65.70;;;;;;5053629;28;20482;-68
2023/09/03 00:38:41;;;;;;;1.55;0.50;;;19.40;65.40;;;;;;5035566;28;19986;-69
2023/09/03 00:41:07;;;;;;;0.20;0.20;;;19.40;65.50;;;;;;5051166;28;20036;-68
2023/09/03 00:43:34;;;;;;;0.70;0.45;;;19.40;65.60;;;;;;5052019;28;20033;-68
2023/09/03 00:46:05;;;;;;;2.83;1.05;;;19.30;65.80;;;;;;5052767;28;20051;-68
2023/09/03 00:48:31;;;;;;;0.28;0.28;;;19.30;65.90;;;;;;5053193;28;20068;-70
2023/09/03 00:51:05;;;;;;;0.45;0.45;;;19.30;65.70;;;;;;5050918;28;20037;-68
2023/09/03 00:53:35;;;;;;;0.68;0.68;;;19.40;65.90;;;;;;5051872;28;20116;-68
2023/09/03 00:56:02;;;;;;;0.35;0.35;;;19.30;66.00;;;;;;5051357;28;20075;-69
2023/09/03 00:58:28;;;;;;;0.50;0.38;;;19.30;65.40;;;;;;5050664;28;20195;-69
2023/09/03 01:00:55;;;;;;;;;;;19.30;66.10;;;;;;5034553;28;20041;-69
2023/09/03 01:03:22;;;;;;;8.15;1.33;;;19.30;66.30;;;;;;5052836;28;19927;-70
2023/09/03 01:05:48;;;;;;;1.10;0.60;;;19.30;66.20;;;;;;5052499;28;20036;-68
2023/09/03 01:08:14;;;;;;;0.45;0.40;;;19.30;66.50;;;;;;5051446;28;20041;-69
2023/09/03 01:11:21;;;;;;;0.30;0.30;;;19.30;65.90;;;;;;5050434;28;20040;-69
2023/09/03 01:14:24;;;;;;;1.02;0.95;;;19.30;66.30;;;;;;5051409;28;20060;-68
2023/09/03 01:17:47;;;;;;;0.10;0.10;;;19.30;66.60;;;;;;5052504;28;20029;-68
2023/09/03 01:20:19;;;;;;;0.65;0.40;;;19.30;66.60;;;;;;5051433;28;20057;-69
2023/09/03 01:23:32;;;;;;;0.13;0.13;;;19.20;66.80;;;;;;5051391;28;20217;-68
2023/09/03 01:26:36;;;;;;;0.22;0.20;;;19.20;67.00;;;;;;5051915;28;20059;-68
2023/09/03 01:29:04;;;;;;;2.28;1.60;;;19.20;67.00;;;;;;5052280;28;20061;-68
2023/09/03 01:31:31;;;;;;;0.17;0.17;;;19.20;67.10;;;;;;5050160;28;20520;-70
2023/09/03 01:34:02;;;;;;;0.50;0.45;;;19.10;66.70;;;;;;5052292;28;20068;-69
2023/09/03 01:36:48;;;;;;;0.25;0.25;;;19.10;67.10;;;;;;5050755;28;20533;-69
2023/09/03 01:39:17;;;;;;;0.15;0.15;;;19.10;67.20;;;;;;5052317;28;20083;-69
2023/09/03 01:41:42;;;;;;;0.90;0.60;;;19.10;67.10;;;;;;5033755;28;20033;-70
2023/09/03 01:44:09;;;;;;;0.20;0.20;;;19.00;67.30;;;;;;5052298;28;20048;-69
2023/09/03 01:46:56;;;;;;;;;;;18.90;67.60;;;;;;5051273;28;20392;-69
2023/09/03 01:49:59;;;;;;;0.28;0.22;;;18.90;67.30;;;;;;5050829;28;19973;-68
2023/09/03 01:53:22;;;;;;;0.10;0.10;;;18.90;67.40;;;;;;5051228;28;20083;-68
2023/09/03 01:55:57;;;;;;;0.90;0.43;;;18.90;67.60;;;;;;5051501;28;20106;-70
2023/09/03 01:58:26;;;;;;;0.20;0.20;;;18.90;67.70;;;;;;5034427;28;20037;-70
2023/09/03 02:00:55;;;;;;;0.20;0.20;;;18.90;67.50;;;;;;5049662;28;20045;-68
2023/09/03 02:03:24;;;;;;;3.15;0.38;;;18.80;66.90;;;;;;5050485;28;20513;-70
2023/09/03 02:05:50;;;;;;;0.30;0.20;;;18.70;66.80;;;;;;5050355;28;20033;-69
2023/09/03 02:08:16;;;;;;;;;;;18.70;67.10;;;;;;5050874;28;20045;-70
2023/09/03 02:10:42;;;;;;;0.20;0.20;;;18.60;67.10;;;;;;5049341;28;20421;-70
2023/09/03 02:13:08;;;;;;;0.90;0.43;;;18.50;67.10;;;;;;5050436;28;20041;-70
2023/09/03 02:15:34;;;;;;;0.10;0.10;;;18.50;66.80;;;;;;5051217;28;20037;-69
2023/09/03 02:18:00;;;;;;;0.32;0.32;;;18.50;66.70;;;;;;5050445;28;20485;-69
2023/09/03 02:20:26;;;;;;;2.42;1.27;;;18.40;66.40;;;;;;5050807;28;20316;-68
2023/09/03 02:22:52;;;;;;;0.15;0.15;;;18.40;66.50;;;;;;5051336;28;20444;-68
2023/09/03 02:25:18;;;;;;;0.10;0.10;;;18.30;67.00;;;;;;5049710;28;20037;-68
2023/09/03 02:27:44;;;;;;;0.30;0.28;;;18.30;67.10;;;;;;5051582;28;20048;-69
2023/09/03 02:30:11;;;;;;;0.52;0.30;;;18.30;67.40;;;;;;5050484;28;20079;-70
2023/09/03 02:32:38;;;;;;;0.75;0.30;;;18.30;66.90;;;;;;5050439;28;20048;-70
2023/09/03 02:35:05;;;;;;;0.20;0.20;;;18.30;67.70;;;;;;5051379;28;20055;-69
2023/09/03 02:37:31;;;;;;;1.08;0.75;;;18.30;67.40;;;;;;5049921;28;20029;-69
2023/09/03 02:39:57;;;;;;;0.30;0.30;;;18.30;67.70;;;;;;5051034;28;20451;-69
2023/09/03 02:42:24;;;;;;;0.25;0.17;;;18.40;67.70;;;;;;5050759;28;20076;-70
2023/09/03 02:44:50;;;;;;;0.28;0.28;;;18.30;67.70;;;;;;5051624;28;20070;-68
2023/09/03 02:47:16;;;;;;;0.15;0.15;;;18.30;68.00;;;;;;5051238;28;20428;-68
2023/09/03 02:49:42;;;;;;;0.47;0.30;;;18.30;68.30;;;;;;5051721;28;20041;-68
2023/09/03 02:52:08;;;;;;;0.65;0.43;;;18.30;68.20;;;;;;5049170;28;20041;-70
2023/09/03 02:54:34;;;;;;;0.15;0.15;;;18.30;68.10;;;;;;5050017;28;20056;-68
2023/09/03 02:57:00;;;;;;;0.38;0.38;;;18.30;68.30;;;;;;5049632;28;20044;-68
2023/09/03 02:59:26;;;;;;;1.25;0.30;;;18.30;68.30;;;;;;5049986;28;20033;-68
2023/09/03 03:01:52;;;;;;;2.25;0.85;;;18.30;68.30;;;;;;5050256;28;20517;-69
2023/09/03 03:04:18;;;;;;;0.30;0.30;;;18.30;68.40;;;;;;5051430;28;20041;-69
2023/09/03 03:06:44;;;;;;;;;;;18.30;68.50;;;;;;5051365;28;20045;-68
2023/09/03 03:09:10;;;;;;;1.02;0.38;;;18.30;68.40;;;;;;5050944;28;20373;-70
2023/09/03 03:11:36;;;;;;;1.10;0.70;;;18.30;68.70;;;;;;5048804;28;20452;-69
2023/09/03 03:14:02;;;;;;;0.45;0.40;;;18.30;68.90;;;;;;5049885;28;20033;-69
2023/09/03 03:16:28;;;;;;;0.52;0.52;;;18.30;69.00;;;;;;5049486;28;20107;-69
2023/09/03 03:18:54;;;;;;;1.52;0.50;;;18.30;70.00;;;;;;5050761;28;20410;-69
2023/09/03 03:21:22;;;;;;;0.88;0.38;;;18.20;69.30;;;;;;5050183;28;20387;-69
2023/09/03 03:24:08;;;;;;;0.60;0.60;;;18.30;69.30;;;;;;5054791;28;20420;-69
2023/09/03 03:26:34;;;;;;;0.40;0.32;;;18.20;68.60;;;;;;5036540;28;20029;-70
2023/09/03 03:29:00;;;;;;;1.52;1.08;;;18.20;69.20;;;;;;5054496;28;20106;-69
2023/09/03 03:31:26;;;;;;;;;;;18.20;69.20;;;;;;5054593;28;20041;-69
2023/09/03 03:33:52;;;;;;;0.38;0.38;;;18.10;69.00;;;;;;5053453;28;20455;-69
2023/09/03 03:36:20;;;;;;;0.65;0.40;;;18.10;68.90;;;;;;5054025;28;20036;-70
2023/09/03 03:38:47;;;;;;;0.70;0.43;;;18.10;68.90;;;;;;5054583;28;20076;-70
2023/09/03 03:41:15;;;;;;;0.40;0.20;;;18.10;68.90;;;;;;5053592;28;20040;-69
2023/09/03 03:43:44;;;;;;;0.65;0.25;;;18.10;69.00;;;;;;5053067;28;20063;-69
2023/09/03 03:46:14;;;;;;;0.38;0.20;;;18.10;69.20;;;;;;5052625;28;20033;-68
2023/09/03 03:48:40;;;;;;;0.30;0.30;;;18.10;69.00;;;;;;5052959;28;20477;-69
2023/09/03 03:51:06;;;;;;;1.08;0.20;;;18.00;68.30;;;;;;5053236;28;20037;-69
2023/09/03 03:53:32;;;;;;;1.92;1.77;;;18.00;69.10;;;;;;5052859;28;20035;-69
2023/09/03 03:56:17;;;;;;;;;;;18.00;69.10;;;;;;5053079;28;20045;-69
2023/09/03 03:58:44;;;;;;;6.80;0.98;;;17.90;69.20;;;;;;5054437;28;19962;-69
2023/09/03 04:01:17;;;;;;;0.65;0.52;;;17.90;68.70;;;;;;5051978;28;20099;-70
2023/09/03 04:03:46;;;;;;;0.20;0.20;;;17.90;69.20;;;;;;5052770;28;20135;-70
2023/09/03 04:06:12;;;;;;;0.30;0.30;;;17.90;69.00;;;;;;5052255;28;20033;-70
2023/09/03 04:08:39;;;;;;;0.52;0.30;;;17.90;69.50;;;;;;5053990;28;20033;-69
2023/09/03 04:11:08;;;;;;;0.82;0.50;;;17.80;69.50;;;;;;5051768;28;20041;-69
2023/09/03 04:13:36;;;;;;;0.65;0.50;;;17.90;69.70;;;;;;5052531;28;20052;-69
2023/09/03 04:16:25;;;;;;;0.10;0.10;;;17.90;69.50;;;;;;5052033;28;20048;-70
2023/09/03 04:18:51;;;;;;;0.80;0.47;;;17.90;69.50;;;;;;5053469;28;20033;-69
2023/09/03 04:21:17;;;;;;;0.10;0.10;;;17.90;69.20;;;;;;5051403;28;20061;-69
2023/09/03 04:23:43;;;;;;;;;;;17.80;69.00;;;;;;5052953;28;20085;-69
2023/09/03 04:26:10;;;;;;;0.88;0.75;;;17.70;68.30;;;;;;5053088;28;20395;-70
2023/09/03 04:28:36;;;;;;;;;;;17.70;68.90;;;;;;5053131;28;20102;-70
2023/09/03 04:31:04;;;;;;;1.63;0.60;;;17.60;68.90;;;;;;5053321;28;20284;-69
2023/09/03 04:33:30;;;;;;;0.20;0.20;;;17.50;69.40;;;;;;5052606;28;20033;-70
2023/09/03 04:35:59;;;;;;;0.70;0.65;;;17.50;69.80;;;;;;5052230;28;20033;-69
2023/09/03 04:38:27;;;;;;;0.75;0.50;;;17.50;69.70;;;;;;5052594;28;20472;-69
2023/09/03 04:40:53;;;;;;;0.30;0.30;;;17.50;69.70;;;;;;5051719;28;20044;-69
2023/09/03 04:43:20;;;;;;;0.55;0.30;;;17.50;69.70;;;;;;5053517;28;20071;-69
2023/09/03 04:46:05;;;;;;;0.38;0.30;;;17.60;69.90;;;;;;5052839;28;20059;-70
2023/09/03 04:48:31;;;;;;;1.00;0.60;;;17.60;69.70;;;;;;5053018;28;20061;-68
2023/09/03 04:51:06;;;;;;;0.20;0.20;;;17.70;70.10;;;;;;5052107;28;20045;-69
2023/09/03 04:53:32;;;;;;;0.40;0.30;;;17.70;70.10;;;;;;5035173;28;20029;-69
2023/09/03 04:55:58;;;;;;;0.52;0.50;;;17.70;70.10;;;;;;5051443;28;20083;-68
2023/09/03 04:58:24;;;;;;;0.30;0.30;;;17.80;70.20;;;;;;5051779;28;20045;-69
2023/09/03 05:00:50;;;;;;;0.57;0.40;;;17.80;70.00;;;;;;5051903;28;20432;-69
2023/09/03 05:03:16;;;;;;;1.70;0.70;;;17.80;70.00;;;;;;5051615;28;20037;-69
2023/09/03 05:05:43;;;;;;;0.70;0.65;;;17.90;70.30;;;;;;5052424;28;20060;-69
2023/09/03 05:08:09;;;;;;;0.60;0.32;;;17.90;70.00;;;;;;5051566;28;20099;-69
2023/09/03 05:10:37;;;;;;;0.30;0.30;;;17.90;70.00;;;;;;5051962;28;20032;-69
2023/09/03 05:15:51;;;;;;;0.63;0.63;;;18.00;70.70;;;;;;5052421;28;20041;-69
2023/09/03 05:18:17;;;;;;;0.10;0.10;;;18.10;71.10;;;;;;5052390;28;20041;-69
2023/09/03 05:20:43;;;;;;;0.65;0.47;;;18.10;71.20;;;;;;5051368;28;20116;-69
2023/09/03 05:23:09;;;;;;;1.17;0.47;;;18.10;71.30;;;;;;5052623;28;20049;-69
2023/09/03 05:25:35;;;;;;;0.82;0.80;;;18.10;71.40;;;;;;5034044;28;20045;-69
2023/09/03 05:28:01;;;;;;;0.50;0.30;;;18.20;71.50;;;;;;5052232;28;20041;-70
2023/09/03 05:30:27;;;;;;;0.65;0.30;;;18.20;71.50;;;;;;5051406;28;20383;-70
2023/09/03 05:32:53;;;;;;;;;;;18.20;71.50;;;;;;5051626;28;20055;-69
2023/09/03 05:35:19;;;;;;;0.20;0.20;;;18.30;71.30;;;;;;5052158;28;19968;-69
2023/09/03 05:37:45;;;;;;;1.90;1.48;;;18.30;71.40;;;;;;5051139;28;20041;-70
2023/09/03 05:40:12;;;;;;;0.43;0.30;;;18.30;71.60;;;;;;5049916;28;20090;-70
2023/09/03 05:42:38;;;;;;;0.75;0.50;;;18.40;71.70;;;;;;5052370;28;20029;-70
2023/09/03 05:45:05;;;;;;;2.92;0.63;;;18.40;71.70;;;;;;5051300;28;20044;-69
2023/09/03 05:47:31;;;;;;;0.25;0.20;;;18.50;71.70;;;;;;5050596;28;20033;-69
2023/09/03 05:49:58;;;;;;;;;;;18.60;72.00;;;;;;5052476;28;20445;-69
2023/09/03 05:52:24;;;;;;;0.20;0.20;;;18.60;71.90;;;;;;5051423;28;19967;-68
2023/09/03 05:54:50;;;;;;;;;;;18.60;71.90;;;;;;5052485;28;20583;-69
2023/09/03 05:57:16;;;;;;;0.10;0.10;;;18.70;71.90;;;;;;5050321;28;19917;-69
2023/09/03 05:59:42;;;;;;;0.60;0.50;;;18.70;72.10;;;;;;5033812;28;20033;-70
2023/09/03 06:02:08;;;;;;;1.38;0.90;;;18.80;72.60;;;;;;5049562;28;20037;-69
2023/09/03 06:04:34;;;;;;;;;;;18.80;72.70;;;;;;5051228;28;20413;-70
2023/09/03 06:07:00;;;;;;;0.20;0.10;;;18.90;72.30;;;;;;5049932;28;19970;-69
2023/09/03 06:09:26;;;;;;;0.22;0.22;;;18.90;73.50;;;;;;5050677;28;20063;-70
2023/09/03 06:11:52;;;;;;;0.43;0.25;;;18.90;74.60;;;;;;5051176;28;20041;-69
2023/09/03 06:14:18;;;;;;;0.20;0.20;;;18.90;73.90;;;;;;5051750;28;20047;-69
2023/09/03 06:16:44;;;;;;;0.13;0.13;;;19.00;73.90;;;;;;5050050;28;20128;-69
2023/09/03 06:19:10;;;;;;;1.65;0.73;;;19.10;73.70;;;;;;5050276;28;20485;-69
2023/09/03 06:21:36;;;;;;;0.10;0.10;;;19.10;74.00;;;;;;5050758;28;20382;-69
2023/09/03 06:24:02;;;;;;;0.63;0.50;;;19.20;74.00;;;;;;5051858;28;20044;-69
2023/09/03 06:26:29;;;;;;;0.28;0.28;;;19.20;74.20;;;;;;5049887;28;20033;-68
2023/09/03 06:28:55;;;;;;;0.63;0.50;;;19.30;74.50;;;;;;5051181;28;20083;-69
2023/09/03 06:31:21;;;;;;;0.88;0.60;;;19.40;74.60;;;;;;5050664;28;20033;-70
2023/09/03 06:33:46;;;;;;;0.40;0.20;;;19.50;74.80;;;;;;5051736;28;20090;-69
2023/09/03 06:36:14;;;;;;;0.30;0.30;;;19.50;75.10;;;;;;5049779;28;20453;-70
2023/09/03 06:38:43;;;;;;;1.00;0.95;;;19.60;74.80;;;;;;5051588;28;20087;-69
2023/09/03 06:41:10;;;;;;;0.65;0.63;;;19.70;74.50;;;;;;5050385;28;20439;-69
2023/09/03 06:43:36;;;;;;;0.40;0.40;;;19.80;74.20;;;;;;5050108;28;20043;-69
2023/09/03 06:46:02;;;;;;;1.35;0.50;;;19.90;74.70;;;;;;5049592;28;20033;-70
2023/09/03 06:48:28;;;;;;;0.40;0.32;;;20.10;74.20;;;;;;5051514;28;20052;-68
2023/09/03 06:50:54;;;;;;;0.60;0.60;;;20.20;73.80;;;;;;5048876;28;20547;-69
2023/09/03 06:53:20;;;;;;;2.17;0.30;;;20.30;73.80;;;;;;5049985;28;20581;-69
2023/09/03 06:55:46;;;;;;;;;;;20.40;73.40;;;;;;5051956;28;20416;-68
2023/09/03 06:58:12;;;;;;;1.58;0.77;;;20.50;73.30;;;;;;5055239;28;20027;-68
2023/09/03 07:00:38;;;;;;;;;;;20.60;72.80;;;;;;5033859;28;20037;-68
2023/09/03 07:03:04;;;;;;;0.20;0.20;;;20.80;73.00;;;;;;5054873;28;20013;-69
2023/09/03 07:05:31;;;;;;;0.75;0.65;;;20.90;72.90;;;;;;5053295;28;20025;-69
2023/09/03 07:07:58;;;;;;;0.50;0.47;;;21.00;73.20;;;;;;5054966;28;20114;-68
2023/09/03 07:10:24;;;;;;;;;;;21.10;72.60;;;;;;5053454;28;20144;-68
2023/09/03 07:12:50;;;;;;;7.97;0.80;;;21.20;72.60;;;;;;5055206;28;19921;-68
2023/09/03 07:15:16;;;;;;;;;;;21.40;72.60;;;;;;5050421;28;20083;-69
2023/09/03 07:17:42;;;;;;;0.43;0.40;;;21.50;72.60;;;;;;5035156;28;19912;-68
2023/09/03 07:20:08;;;;;;;;;;;21.90;71.80;;;;;;5051985;28;20044;-68
2023/09/03 07:22:34;;;;;;;0.20;0.20;;;22.50;71.70;;;;;;5054650;28;19978;-70
2023/09/03 07:25:00;;;;;;;1.08;0.75;;;23.00;69.60;;;;;;5053543;28;20036;-69
2023/09/03 07:27:26;;;;;;;;;;;23.60;68.50;;;;;;5053457;28;20025;-70
2023/09/03 07:29:53;;;;;;;0.20;0.20;;;24.20;69.10;;;;;;5054641;28;20280;-68
2023/09/03 07:32:21;;;;;;;1.50;1.05;;;24.70;64.80;;;;;;5049949;28;20465;-69
2023/09/03 07:34:47;;;;;;;0.93;0.55;;;25.30;62.80;;;;;;5033574;28;20034;-69
2023/09/03 07:37:14;;;;;;;2.10;1.58;;;25.90;60.60;;;;;;5034173;28;20376;-70
2023/09/03 07:39:40;;;;;;;0.68;0.63;;;26.50;59.20;;;;;;5033278;28;20441;-69
2023/09/03 07:42:06;;;;;;;0.38;0.28;;;26.90;56.00;;;;;;5033580;28;20037;-69
2023/09/03 07:44:32;;;;;;;0.60;0.50;;;27.60;55.10;;;;;;5034507;28;20080;-69
2023/09/03 07:46:58;;;;;;;0.35;0.30;;;27.80;51.50;;;;;;5033849;28;20417;-69
2023/09/03 07:49:24;;;;;;;1.23;0.60;;;27.80;51.20;;;;;;5034786;28;20041;-69
2023/09/03 07:51:52;;;;;;;0.25;0.20;;;27.90;50.40;;;;;;5033124;28;20391;-69
2023/09/03 07:54:18;;;;;;;0.90;0.73;;;27.80;50.40;;;;;;5016705;28;20042;-69
2023/09/03 07:56:44;;;;;;;0.30;0.30;;;27.70;49.70;;;;;;5033989;28;20076;-69
2023/09/03 07:59:10;;;;;;;0.25;0.25;;;28.10;49.50;;;;;;5032850;28;20045;-70
2023/09/03 08:01:36;;;;;;;0.30;0.30;;;28.80;48.10;;;;;;5032157;28;20395;-69
2023/09/03 08:04:04;;;;;;;0.88;0.50;;;29.50;47.50;;;;;;5049552;28;20045;-69
2023/09/03 08:06:30;;;;;;;0.63;0.45;;;30.30;45.00;;;;;;5041124;28;20025;-69
2023/09/03 08:08:56;;;;;;;0.30;0.30;;;30.90;43.70;;;;;;5053513;28;20037;-70
2023/09/03 08:11:22;;;;;;;0.45;0.45;;;31.60;43.50;;;;;;5052805;28;20036;-70
2023/09/03 08:14:07;;;;;;;0.95;0.85;;;32.30;41.20;;;;;;5052429;28;20041;-69
2023/09/03 08:16:33;;;;;;;0.32;0.32;;;32.70;40.20;;;;;;5053304;28;20075;-69
2023/09/03 08:18:59;;;;;;;2.25;1.05;;;32.80;39.10;;;;;;5053679;28;20506;-70
2023/09/03 08:21:25;;;;;;;0.82;0.47;;;32.50;39.00;;;;;;5050763;28;20052;-69
2023/09/03 08:23:51;;;;;;;0.60;0.57;;;32.10;39.70;;;;;;5045468;28;20593;-70
2023/09/03 08:26:17;;;;;;;0.30;0.30;;;31.80;39.60;;;;;;5041052;28;20055;-69
2023/09/03 08:28:43;;;;;;;0.40;0.30;;;31.30;39.90;;;;;;5051976;28;20589;-68
2023/09/03 08:31:10;;;;;;;0.40;0.40;;;31.00;40.50;;;;;;5071517;28;20028;-69
2023/09/03 08:33:37;;;;;;;0.80;0.50;;;30.90;41.00;;;;;;5055061;28;20045;-69
2023/09/03 08:36:04;;;;;;;2.10;0.50;;;31.10;40.60;;;;;;5053714;28;20108;-69
2023/09/03 08:38:30;;;;;;;0.50;0.50;;;31.30;40.00;;;;;;5074603;28;20508;-69
2023/09/03 08:40:56;;;;;;;0.32;0.32;;;31.20;41.00;;;;;;5092747;28;20089;-69
2023/09/03 08:43:26;;;;;;;0.45;0.43;;;31.00;40.80;;;;;;5092671;28;20044;-69
2023/09/03 08:45:59;;;;;;;1.73;0.80;;;30.80;40.40;;;;;;5092463;28;20032;-69
2023/09/03 08:48:26;;;;;;;0.45;0.38;;;30.50;41.60;;;;;;5092179;28;20070;-69
2023/09/03 08:50:52;;;;;;;0.95;0.85;;;30.40;41.90;;;;;;5091154;28;20028;-69
2023/09/03 08:53:21;;;;;;;0.65;0.45;;;30.20;42.30;;;;;;5091977;28;20043;-69
2023/09/03 08:55:47;;;;;;;2.75;1.02;;;30.10;43.00;;;;;;5091557;28;20107;-69
2023/09/03 08:58:15;;;;;;;1.30;0.68;;;30.00;43.70;;;;;;5091922;28;20036;-69
2023/09/03 09:00:42;;;;;;;0.32;0.30;;;29.80;42.70;;;;;;5092062;28;20047;-69
2023/09/03 09:03:11;;;;;;;0.68;0.40;;;29.60;43.30;;;;;;5091753;28;20427;-69
2023/09/03 09:05:40;;;;;;;0.88;0.60;;;29.60;42.60;;;;;;5074633;28;20040;-69
2023/09/03 09:08:06;;;;;;;0.40;0.40;;;29.60;43.20;;;;;;5091901;28;20129;-69
2023/09/03 09:10:37;;;;;;;1.35;0.75;;;29.60;42.60;;;;;;5090826;28;20028;-70
2023/09/03 09:13:23;;;;;;;0.60;0.57;;;29.40;43.20;;;;;;5091752;28;20036;-70
2023/09/03 09:15:49;;;;;;;0.32;0.32;;;29.40;43.20;;;;;;5091284;28;20449;-69
2023/09/03 09:18:15;;;;;;;0.52;0.52;;;29.40;43.30;;;;;;5092822;28;20481;-69
2023/09/03 09:20:42;;;;;;;0.47;0.47;;;29.20;43.70;;;;;;5090890;28;20389;-68
2023/09/03 09:23:08;;;;;;;0.98;0.60;;;29.10;44.50;;;;;;5091593;28;20034;-68
2023/09/03 09:25:35;;;;;;;0.63;0.50;;;29.00;44.40;;;;;;5090931;28;20467;-69
2023/09/03 09:28:21;;;;;;;1.88;1.10;;;29.10;44.90;;;;;;5091213;28;20047;-69
2023/09/03 09:31:09;;;;;;;1.00;0.80;;;29.30;44.60;;;;;;5090519;28;20139;-70
2023/09/03 09:33:50;;;;;;;0.80;0.50;;;29.50;43.90;;;;;;5091277;28;20511;-70
2023/09/03 09:36:16;;;;;;;0.52;0.52;;;29.60;43.80;;;;;;5073935;28;20058;-68
2023/09/03 09:38:42;;;;;;;2.97;0.70;;;29.70;43.80;;;;;;5091127;28;20477;-69
2023/09/03 09:41:39;;;;;;;0.85;0.50;;;29.90;43.30;;;;;;5090212;28;20040;-69
2023/09/03 09:44:24;;;;;;;;;;;30.10;43.40;;;;;;5093157;28;20032;-69
2023/09/03 09:46:50;;;;;;;1.38;0.70;;;30.10;43.00;;;;;;5074367;28;19920;-69
2023/09/03 09:49:16;;;;;;;0.90;0.75;;;30.20;43.10;;;;;;5073379;28;20043;-69
2023/09/03 09:51:42;;;;;;;1.15;0.50;;;30.70;42.40;;;;;;5091311;28;20032;-69
2023/09/03 09:54:08;;;;;;;1.33;0.70;;;31.10;42.20;;;;;;5070702;28;20036;-70
2023/09/03 09:56:35;;;;;;;1.40;1.02;;;31.40;41.40;;;;;;5071583;28;20033;-69
2023/09/03 09:59:03;;;;;;;1.05;0.85;;;31.90;39.90;;;;;;5070328;28;20456;-69
2023/09/03 10:01:43;;;;;;;0.52;0.47;;;32.20;39.60;;;;;;5069731;28;20036;-70
2023/09/03 10:04:10;;;;;;;2.60;2.15;;;32.20;39.50;;;;;;5067925;28;20051;-70
2023/09/03 10:06:37;;;;;;;0.55;0.55;;;31.90;39.50;;;;;;5065411;28;20500;-69
2023/09/03 10:09:05;;;;;;;1.48;1.02;;;31.60;39.80;;;;;;5053875;28;20071;-69
2023/09/03 10:11:31;;;;;;;2.50;1.33;;;31.30;40.30;;;;;;5069323;28;20036;-69
2023/09/03 10:13:57;;;;;;;0.43;0.43;;;31.30;40.80;;;;;;5071550;28;20377;-68
2023/09/03 10:16:23;;;;;;;1.25;0.88;;;31.10;41.30;;;;;;5071214;28;20025;-69
2023/09/03 10:18:50;;;;;;;0.50;0.43;;;31.00;41.50;;;;;;5071305;28;20040;-69
2023/09/03 10:21:37;;;;;;;0.73;0.63;;;30.90;41.00;;;;;;5069356;28;20041;-69
2023/09/03 10:24:05;;;;;;;1.40;0.80;;;30.80;41.90;;;;;;5070147;28;20119;-69
2023/09/03 10:27:12;;;;;;;1.17;0.85;;;30.70;42.50;;;;;;5053257;28;20025;-70
2023/09/03 10:29:42;;;;;;;0.47;0.40;;;30.60;42.50;;;;;;5071629;28;20050;-68
2023/09/03 10:32:10;;;;;;;0.82;0.45;;;30.50;42.90;;;;;;5070297;28;20428;-69
2023/09/03 10:34:56;;;;;;;1.15;0.95;;;30.50;43.10;;;;;;5071858;28;20037;-69
2023/09/03 10:37:36;;;;;;;0.77;0.50;;;30.50;43.10;;;;;;5069985;28;20068;-69
2023/09/03 10:40:22;;;;;;;0.80;0.52;;;30.40;43.20;;;;;;5071289;28;20419;-68
2023/09/03 10:42:50;;;;;;;0.75;0.68;;;30.40;43.50;;;;;;5071143;28;20037;-69
2023/09/03 10:45:18;;;;;;;1.20;0.85;;;30.50;43.60;;;;;;5069679;28;20120;-69
2023/09/03 10:48:05;;;;;;;1.48;1.10;;;30.50;43.50;;;;;;5071743;28;20031;-69
2023/09/03 10:50:50;;;;;;;1.17;0.82;;;30.60;43.20;;;;;;5069377;28;20435;-69
2023/09/03 10:53:36;;;;;;;1.30;0.60;;;30.80;43.10;;;;;;5071414;28;20060;-70
2023/09/03 10:56:20;;;;;;;0.95;0.85;;;31.20;42.80;;;;;;5069738;28;20024;-69
2023/09/03 10:59:05;;;;;;;1.23;0.80;;;31.60;41.80;;;;;;5069939;28;20076;-69
2023/09/03 11:01:33;;;;;;;0.68;0.65;;;32.10;41.00;;;;;;5069070;28;20060;-69
2023/09/03 11:04:01;;;;;;;0.50;0.50;;;32.40;39.80;;;;;;5070034;28;20461;-69
2023/09/03 11:06:31;;;;;;;1.08;0.60;;;32.20;39.80;;;;;;5069782;28;20036;-69
2023/09/03 11:09:16;;;;;;;1.05;0.95;;;32.00;40.40;;;;;;5053459;28;20036;-69
2023/09/03 11:11:42;;;;;;;1.02;0.60;;;31.70;41.00;;;;;;5070637;28;20068;-70
2023/09/03 11:14:10;;;;;;;0.80;0.77;;;31.50;41.40;;;;;;5069938;28;20043;-69
2023/09/03 11:19:41;;;;;;;2.10;1.20;;;31.50;40.80;;;;;;5069981;28;20063;-69
2023/09/03 11:22:08;;;;;;;0.90;0.50;;;31.70;40.40;;;;;;5070235;28;20067;-69
2023/09/03 11:24:46;;;;;;;0.63;0.60;;;31.80;40.00;;;;;;5069600;28;20045;-69
2023/09/03 11:27:12;;;;;;;0.65;0.65;;;31.90;39.70;;;;;;5070148;28;20020;-69
2023/09/03 11:29:38;;;;;;;1.00;0.60;;;32.10;39.90;;;;;;5070851;28;20075;-69
2023/09/03 11:32:04;;;;;;;1.33;1.20;;;32.30;39.80;;;;;;5068723;28;20036;-69
2023/09/03 11:34:30;;;;;;;0.55;0.55;;;32.50;38.50;;;;;;5069690;28;20036;-69
2023/09/03 11:36:57;;;;;;;1.30;1.00;;;32.70;38.70;;;;;;5070442;28;20619;-69
2023/09/03 11:39:23;;;;;;;2.13;0.85;;;32.80;38.10;;;;;;5071060;28;20489;-69
2023/09/03 11:41:49;;;;;;;1.00;0.80;;;33.00;38.60;;;;;;5051548;28;20036;-69
2023/09/03 11:44:34;;;;;;;1.17;0.73;;;33.30;38.20;;;;;;5073659;28;20090;-69
2023/09/03 11:47:03;;;;;;;0.52;0.43;;;33.40;38.20;;;;;;5073907;28;20112;-69
2023/09/03 11:49:29;;;;;;;1.25;1.05;;;33.40;37.70;;;;;;5056296;28;20035;-70
2023/09/03 11:52:15;;;;;;;0.68;0.68;;;33.70;36.60;;;;;;5072037;28;20053;-69
2023/09/03 11:54:42;;;;;;;1.38;0.60;;;33.90;36.40;;;;;;5074718;28;20112;-70
2023/09/03 11:57:30;;;;;;;1.02;0.75;;;34.00;35.90;;;;;;5072468;28;20029;-69
2023/09/03 11:59:56;;;;;;;0.60;0.60;;;34.70;34.90;;;;;;5072419;28;20044;-69
2023/09/03 12:02:22;;;;;;;0.38;0.38;;;35.00;34.10;;;;;;5071914;28;20036;-69
2023/09/03 12:04:49;;;;;;;1.00;0.80;;;35.00;34.20;;;;;;5062835;28;20064;-69
2023/09/03 12:07:16;;;;;;;2.42;1.00;;;35.30;34.00;;;;;;5068781;28;20033;-69
2023/09/03 12:09:43;;;;;;;0.70;0.55;;;35.80;32.40;;;;;;5072616;28;20032;-69
2023/09/03 12:12:10;;;;;;;1.15;0.90;;;36.10;31.90;;;;;;5071760;28;20496;-69
2023/09/03 12:14:36;;;;;;;0.50;0.50;;;36.40;31.30;;;;;;5072046;28;20044;-69
2023/09/03 12:17:02;;;;;;;1.08;0.77;;;37.20;31.60;;;;;;5071803;28;20024;-69
2023/09/03 12:19:46;;;;;;;0.50;0.50;;;39.10;29.20;;;;;;5072491;28;20047;-70
2023/09/03 12:22:14;;;;;;;0.93;0.85;;;40.00;27.40;;;;;;5071462;28;20037;-69
2023/09/03 12:24:40;;;;;;;1.23;0.90;;;40.40;26.50;;;;;;5073998;28;20068;-70
2023/09/03 12:27:06;;;;;;;0.85;0.80;;;40.30;26.50;;;;;;5072209;28;20070;-69
2023/09/03 12:29:54;;;;;;;4.00;1.48;;;41.10;25.60;;;;;;5073393;28;20433;-70
2023/09/03 12:32:33;;;;;;;0.82;0.60;;;42.00;25.10;;;;;;5071335;28;20567;-70
2023/09/03 12:34:59;;;;;;;1.60;0.73;;;43.20;23.10;;;;;;5072326;28;20040;-70
2023/09/03 12:37:39;;;;;;;0.70;0.70;;;43.50;22.70;;;;;;5071979;28;20405;-70
2023/09/03 12:40:05;;;;;;;1.95;1.00;;;43.00;23.00;;;;;;5071285;28;20067;-70
2023/09/03 12:42:31;;;;;;;0.82;0.73;;;42.80;23.00;;;;;;5073235;28;20119;-70
2023/09/03 12:44:57;;;;;;;0.82;0.60;;;42.10;23.70;;;;;;5073132;28;20051;-70
2023/09/03 12:47:23;;;;;;;2.45;1.02;;;41.40;24.90;;;;;;5072878;28;20028;-69
2023/09/03 12:49:49;;;;;;;3.05;0.85;;;40.60;24.70;;;;;;5073561;28;20052;-70
2023/09/03 12:52:15;;;;;;;1.05;0.80;;;39.80;25.50;;;;;;5070889;28;20124;-69
2023/09/03 12:54:41;;;;;;;0.85;0.70;;;39.70;25.90;;;;;;5071653;28;20044;-70
2023/09/03 12:57:07;;;;;;;0.65;0.60;;;41.10;25.30;;;;;;5072692;28;20029;-70
2023/09/03 12:59:33;;;;;;;0.68;0.68;;;41.90;24.00;;;;;;5073350;28;20052;-70
2023/09/03 13:01:59;;;;;;;0.75;0.75;;;42.50;23.50;;;;;;5071903;28;20041;-70
2023/09/03 13:04:25;;;;;;;1.58;1.20;;;42.60;23.00;;;;;;5073052;28;20396;-70
2023/09/03 13:06:51;;;;;;;2.05;1.25;;;42.50;22.90;;;;;;5071020;28;20082;-70
2023/09/03 13:09:19;;;;;;;1.15;0.90;;;42.40;23.00;;;;;;5072989;28;20052;-70
2023/09/03 13:11:46;;;;;;;2.13;1.58;;;42.10;23.20;;;;;;5070339;28;20449;-70